Cusco, Peru
Current Conditions -  °F | °C
As of 2:00 AM on Saturday 29 Nov 2014 (Local Time) from SPZO Reporting Station
Few Clouds Few Clouds  
Wind Chill: 48°   Ceiling: Unl
Heat Index: 48°   Visibility: 6mi
Dew Point: 37°   Wind: 1mph
Humidity: 66%   Direction: NA
Pressure: 30.42"   Gusts: NA
Location:  13.52°S, 71.99°W
Report Text: SPZO 290700Z VRB01KT 9999 FEW050 09/03 Q1030 RMK PP000
Loading
Personal Weather Stations






























Interactive Weather Map New forecast layout! Learn more

10-Day Weather Forecast

Advertisements
Track Severe Weather on mobile